createdAt,value
2018-05-14T19:32:44.211Z,977
2018-05-14T19:33:46.098Z,976.9
2018-05-14T19:34:47.414Z,976.7
2018-05-14T19:35:48.901Z,977
2018-05-14T19:36:50.404Z,976.8
2018-05-14T19:37:51.792Z,976.8
2018-05-14T19:38:53.052Z,977
2018-05-14T19:39:54.366Z,976.9
2018-05-14T19:40:55.730Z,976.7
2018-05-14T19:41:57.076Z,977.1
2018-05-14T19:42:58.754Z,977.1
2018-05-14T19:44:00.242Z,977.1
2018-05-14T19:45:03.031Z,976.9
2018-05-14T19:46:04.644Z,976.9
2018-05-14T19:47:06.294Z,977.1
2018-05-14T19:48:08.040Z,977.1
2018-05-14T19:49:09.762Z,977.1
2018-05-14T19:50:11.383Z,976.7
2018-05-14T19:51:12.888Z,977
2018-05-14T19:52:19.325Z,977
2018-05-14T19:53:21.284Z,977
2018-05-14T19:54:22.813Z,977
2018-05-14T19:55:24.384Z,977.1
2018-05-14T19:56:25.931Z,977
2018-05-14T19:57:27.910Z,976.9
2018-05-14T19:58:29.540Z,977.1
2018-05-14T19:59:31.172Z,977
2018-05-14T20:00:32.689Z,977
2018-05-14T20:01:39.743Z,977.1
2018-05-14T20:02:42.083Z,977.1
2018-05-14T20:03:44.460Z,977.1
2018-05-14T20:04:49.475Z,976.9
2018-05-14T20:05:54.172Z,977.1
2018-05-14T20:06:56.042Z,977.1
2018-05-14T20:07:58.255Z,977.1
2018-05-14T20:09:00.301Z,977.1
2018-05-14T20:10:02.302Z,977
2018-05-14T20:11:04.123Z,977
2018-05-14T20:12:06.430Z,977
2018-05-14T20:13:08.351Z,977
2018-05-14T20:14:10.787Z,977.1
2018-05-14T20:15:12.952Z,977.2
2018-05-14T20:16:15.051Z,977.1
2018-05-14T20:17:16.859Z,977
2018-05-14T20:18:18.921Z,977.1
2018-05-14T20:19:21.463Z,977.1
2018-05-14T20:20:23.489Z,977.1
2018-05-14T20:21:25.114Z,977.1
2018-05-14T20:22:26.727Z,977.1
2018-05-14T20:23:28.379Z,976.7
2018-05-14T20:24:31.447Z,977.2
2018-05-14T20:25:34.940Z,977.1
2018-05-14T20:26:36.584Z,977.2
2018-05-14T20:27:38.371Z,977.2
2018-05-14T20:28:39.941Z,977.2
2018-05-14T20:29:41.742Z,977.2
2018-05-14T20:30:43.342Z,977.1
2018-05-14T20:31:45.278Z,977.1
2018-05-14T20:32:46.957Z,977.2
2018-05-14T20:33:48.689Z,977
2018-05-14T20:34:50.491Z,977.3
2018-05-14T20:35:52.072Z,977.2
2018-05-14T20:36:53.673Z,977.2
2018-05-14T20:37:55.119Z,977.2
2018-05-14T20:38:57.623Z,977.4
2018-05-14T20:40:00.610Z,977.3
2018-05-14T20:41:02.161Z,977.3
2018-05-14T20:42:03.844Z,977.4
2018-05-14T20:43:06.296Z,977.1
2018-05-14T20:44:07.780Z,977.3
2018-05-14T20:45:09.547Z,977.3
2018-05-14T20:46:11.035Z,977.4
2018-05-14T20:47:12.889Z,977.4
2018-05-14T20:48:14.862Z,977.3
2018-05-14T20:49:16.449Z,977.4
2018-05-14T20:50:18.097Z,977.4
2018-05-14T20:51:19.664Z,977.1
2018-05-14T20:52:21.232Z,977.5
2018-05-14T20:53:22.682Z,977.4
2018-05-14T20:54:24.301Z,977.4
2018-05-14T20:55:25.868Z,977.5
2018-05-14T20:56:27.129Z,977.5
2018-05-14T20:57:28.449Z,977.4
2018-05-14T20:58:29.697Z,977
2018-05-14T20:59:31.063Z,977.4
2018-05-14T21:00:32.351Z,977.4
2018-05-14T21:01:33.619Z,977.4
2018-05-14T21:02:34.910Z,977.4
2018-05-14T21:03:36.256Z,977.3
2018-05-14T21:04:37.539Z,977.3
2018-05-14T21:05:39.207Z,977.1
2018-05-14T21:06:40.406Z,977.4
2018-05-14T21:07:41.650Z,977.4
2018-05-14T21:08:42.947Z,977.5
2018-05-14T21:09:44.231Z,977.2
2018-05-14T21:10:45.504Z,977.4
2018-05-14T21:11:46.806Z,977.4
2018-05-14T21:12:48.135Z,977.5
2018-05-14T21:13:49.390Z,977.4
2018-05-14T21:14:50.691Z,977.5
2018-05-14T21:15:51.952Z,977.6
2018-05-14T21:16:53.236Z,977.4
2018-05-14T21:17:54.513Z,977.6
2018-05-14T21:18:55.903Z,977.6
2018-05-14T21:19:57.156Z,977.6
2018-05-14T21:20:58.492Z,977.6
2018-05-14T21:21:59.761Z,977.6
2018-05-14T21:23:01.034Z,977.6
2018-05-14T21:24:02.292Z,977.7
2018-05-14T21:25:03.571Z,977.7
2018-05-14T21:26:04.877Z,977.6
2018-05-14T21:27:06.123Z,977.6
2018-05-14T21:28:07.903Z,977.7
2018-05-14T21:29:09.279Z,977.7
2018-05-14T21:30:10.565Z,977.6
2018-05-14T21:31:11.968Z,977.5
2018-05-14T21:32:13.163Z,977.6
2018-05-14T21:33:14.408Z,977.5
2018-05-14T21:34:15.658Z,977.5
2018-05-14T21:35:16.905Z,977.6
2018-05-14T21:36:18.278Z,977.6
2018-05-14T21:37:22.727Z,977.5
2018-05-14T21:38:23.988Z,977.7
2018-05-14T21:39:25.220Z,977.7
2018-05-14T21:40:26.476Z,977.6
2018-05-14T21:41:29.869Z,977.6
2018-05-14T21:42:31.200Z,977.7
2018-05-14T21:43:32.434Z,977.7
2018-05-14T21:44:33.668Z,977.7
2018-05-14T21:45:34.913Z,977.8
2018-05-14T21:46:36.371Z,977.7
2018-05-14T21:47:37.635Z,977.7
2018-05-14T21:48:38.962Z,977.8
2018-05-14T21:49:40.215Z,977.8
2018-05-14T21:50:41.464Z,977.8
2018-05-14T21:51:42.786Z,977.7
2018-05-14T21:52:44.044Z,977.8
2018-05-14T21:53:45.323Z,977.7
2018-05-14T21:54:46.555Z,977.8
2018-05-14T21:55:49.047Z,977.8
2018-05-14T21:56:50.373Z,977.8
2018-05-14T21:57:51.650Z,977.7
2018-05-14T21:58:53.044Z,977.4
2018-05-14T21:59:54.296Z,977.9
2018-05-14T22:00:55.596Z,977.8
2018-05-14T22:01:56.878Z,977.8
2018-05-14T22:02:58.227Z,977.8
2018-05-14T22:03:59.469Z,977.8
2018-05-14T22:05:00.731Z,977.8
2018-05-14T22:06:02.018Z,977.8
2018-05-14T22:07:03.467Z,977.8
2018-05-14T22:08:04.725Z,977.8
2018-05-14T22:09:05.956Z,977.9
2018-05-14T22:10:07.188Z,977.8
2018-05-14T22:11:08.480Z,977.9
2018-05-14T22:12:09.844Z,977.7
2018-05-14T22:13:11.075Z,977.9
2018-05-14T22:14:12.646Z,977.8
2018-05-14T22:15:13.916Z,977.9
2018-05-14T22:16:15.184Z,977.6
2018-05-14T22:17:16.526Z,977.9
2018-05-14T22:18:17.971Z,977.8
2018-05-14T22:19:20.387Z,977.9
2018-05-14T22:20:21.656Z,978
2018-05-14T22:21:23.057Z,977.9
2018-05-14T22:22:24.340Z,977.9
2018-05-14T22:23:25.581Z,977.9
2018-05-14T22:24:26.828Z,978
2018-05-14T22:25:28.068Z,978
2018-05-14T22:26:29.353Z,977.9
2018-05-14T22:27:30.624Z,977.9
2018-05-14T22:28:31.863Z,977.9
2018-05-14T22:29:33.130Z,978
2018-05-14T22:30:34.377Z,978
2018-05-14T22:31:35.620Z,978
2018-05-14T22:32:36.896Z,978.1
2018-05-14T22:33:38.140Z,978.1
2018-05-14T22:34:39.461Z,978.1
2018-05-14T22:35:40.757Z,978
2018-05-14T22:36:41.999Z,978.1
2018-05-14T22:37:43.614Z,977.9
2018-05-14T22:38:44.862Z,978.1
2018-05-14T22:39:46.364Z,978.1
2018-05-14T22:40:47.655Z,978
2018-05-14T22:41:48.898Z,978
2018-05-14T22:42:50.201Z,978
2018-05-14T22:43:51.406Z,978.2
2018-05-14T22:44:52.699Z,978.1
2018-05-14T22:45:53.931Z,978.1
2018-05-14T22:46:55.227Z,978.1
2018-05-14T22:47:56.527Z,978
2018-05-14T22:48:57.808Z,978.1
2018-05-14T22:49:59.064Z,978
2018-05-14T22:51:00.298Z,978
2018-05-14T22:52:01.547Z,978
2018-05-14T22:53:02.879Z,978.1
2018-05-14T22:54:04.119Z,978
2018-05-14T22:55:05.429Z,977.8
2018-05-14T22:56:07.055Z,978.1
2018-05-14T22:57:08.376Z,978.1
2018-05-14T22:58:09.800Z,978
2018-05-14T22:59:11.084Z,978
2018-05-14T23:00:12.334Z,978
2018-05-14T23:01:13.596Z,977.9
2018-05-14T23:02:14.817Z,978
2018-05-14T23:03:16.136Z,978.1
2018-05-14T23:04:17.387Z,978.1
2018-05-14T23:05:18.699Z,978
2018-05-14T23:06:20.414Z,978.1
2018-05-14T23:07:21.715Z,978.1
2018-05-14T23:08:23.025Z,978.1
2018-05-14T23:09:24.255Z,978.1
2018-05-14T23:10:25.492Z,978
2018-05-14T23:11:26.722Z,978.1
2018-05-14T23:12:28.283Z,978.1
2018-05-14T23:13:29.656Z,978.1
2018-05-14T23:14:30.885Z,978.1
2018-05-14T23:15:32.171Z,978.1
2018-05-14T23:16:33.426Z,978.1
2018-05-14T23:17:34.688Z,978.2
2018-05-14T23:18:35.948Z,978.2
2018-05-14T23:19:37.178Z,978.1
2018-05-14T23:20:38.421Z,978.2
2018-05-14T23:21:41.753Z,978
2018-05-14T23:22:42.988Z,978.2
2018-05-14T23:23:44.284Z,978.1
2018-05-14T23:24:45.511Z,978.2
2018-05-14T23:25:46.736Z,978.2
2018-05-14T23:26:48.016Z,978.1
2018-05-14T23:27:49.307Z,978.2
2018-05-14T23:28:50.595Z,978.2
2018-05-14T23:29:51.885Z,978.2
2018-05-14T23:30:53.181Z,978.2
2018-05-14T23:31:54.445Z,978.2
2018-05-14T23:32:55.688Z,978.2
2018-05-14T23:33:57.003Z,978.2
2018-05-14T23:34:58.248Z,978.1
2018-05-14T23:35:59.483Z,978.3
2018-05-14T23:37:00.950Z,978.2
2018-05-14T23:38:02.236Z,978.2
2018-05-14T23:39:03.533Z,978.3
2018-05-14T23:40:07.125Z,978.2
2018-05-14T23:41:08.358Z,978.2
2018-05-14T23:42:09.620Z,978.2
2018-05-14T23:43:11.027Z,978.2
2018-05-14T23:44:12.378Z,978.2
2018-05-14T23:45:13.633Z,978.3
2018-05-14T23:46:14.869Z,978.3
2018-05-14T23:47:16.115Z,978.2
2018-05-14T23:48:17.619Z,978.1
2018-05-14T23:49:18.957Z,978.2
2018-05-14T23:50:20.185Z,978.3
2018-05-14T23:51:21.500Z,978.3
2018-05-14T23:52:22.826Z,978.2
2018-05-14T23:53:24.055Z,978.2
2018-05-14T23:54:25.492Z,978.3
2018-05-14T23:55:26.728Z,978.3
2018-05-14T23:56:27.973Z,978.2
2018-05-14T23:57:29.229Z,978.2
2018-05-14T23:58:30.449Z,978.2
2018-05-14T23:59:31.715Z,978.2
